Time;durP1;ratioP1;P1;durP2;ratioP2;P2;SDS_P1;SDS_P2;PMS_P1;PMS_P2;Temp;Humidity;BMP_temperature;BMP_pressure;BME280_temperature;BME280_humidity;BME280_pressure;Samples;Min_cycle;Max_cycle;Signal;HPM_P1;HPM_P2
2023/07/22 00:00:53;;;;;;;6.90;4.30;;;23.70;52.40;;;;;;6110217;23;114073;-80
2023/07/22 00:03:20;;;;;;;7.30;4.10;;;23.70;52.00;;;;;;6109965;23;114422;-81
2023/07/22 00:05:47;;;;;;;5.65;3.90;;;23.80;52.00;;;;;;6107954;23;114909;-81
2023/07/22 00:08:14;;;;;;;5.93;3.60;;;23.80;52.10;;;;;;6109199;23;114703;-81
2023/07/22 00:10:42;;;;;;;5.22;3.30;;;23.80;51.80;;;;;;6084018;23;114388;-81
2023/07/22 00:13:09;;;;;;;7.57;3.42;;;23.80;51.70;;;;;;6109064;23;114107;-81
2023/07/22 00:15:36;;;;;;;4.90;3.50;;;23.80;51.70;;;;;;6107385;23;118031;-81
2023/07/22 00:18:04;;;;;;;5.47;3.35;;;23.80;52.20;;;;;;6107583;23;118543;-81
2023/07/22 00:20:31;;;;;;;4.82;3.03;;;23.80;51.70;;;;;;6109431;23;114190;-81
2023/07/22 00:23:00;;;;;;;5.68;3.50;;;23.80;51.70;;;;;;6108402;23;114775;-79
2023/07/22 00:25:27;;;;;;;5.05;2.95;;;23.80;51.80;;;;;;6109243;23;114809;-79
2023/07/22 00:27:54;;;;;;;5.57;3.28;;;23.80;51.70;;;;;;6110109;23;114535;-81
2023/07/22 00:30:21;;;;;;;5.18;3.15;;;23.80;51.70;;;;;;6111501;23;114454;-80
2023/07/22 00:32:51;;;;;;;4.70;3.30;;;23.80;51.70;;;;;;6110061;23;114383;-80
2023/07/22 00:35:18;;;;;;;5.75;3.50;;;23.80;51.90;;;;;;6110174;23;114882;-80
2023/07/22 00:37:45;;;;;;;5.20;3.55;;;23.80;52.30;;;;;;6109426;23;114631;-80
2023/07/22 00:40:12;;;;;;;6.30;3.33;;;23.70;51.80;;;;;;6134905;22;114465;-80
2023/07/22 00:42:40;;;;;;;4.97;3.20;;;23.80;52.10;;;;;;6085119;23;114286;-80
2023/07/22 00:45:07;;;;;;;5.47;3.33;;;23.70;51.90;;;;;;6109882;23;114796;-80
2023/07/22 00:47:35;;;;;;;5.30;3.35;;;23.70;51.90;;;;;;6109160;23;114562;-80
2023/07/22 00:50:03;;;;;;;5.80;3.83;;;23.70;51.90;;;;;;6084806;23;114501;-81
2023/07/22 00:52:30;;;;;;;5.30;3.30;;;23.70;52.80;;;;;;6109655;23;114060;-81
2023/07/22 00:54:58;;;;;;;9.38;3.95;;;23.70;51.90;;;;;;6108667;22;114781;-81
2023/07/22 00:57:27;;;;;;;6.13;4.00;;;23.70;52.00;;;;;;6084366;23;117518;-80
2023/07/22 00:59:54;;;;;;;6.85;3.90;;;23.70;52.10;;;;;;6111570;23;114299;-81
2023/07/22 01:02:22;;;;;;;7.40;5.13;;;23.60;52.10;;;;;;6111787;23;114155;-81
2023/07/22 01:04:50;;;;;;;8.13;4.40;;;23.60;52.70;;;;;;6133909;22;114928;-80
2023/07/22 01:07:17;;;;;;;7.13;3.95;;;23.50;52.40;;;;;;6108873;23;115753;-80
2023/07/22 01:09:44;;;;;;;6.15;4.22;;;23.50;52.30;;;;;;6109138;23;114125;-80
2023/07/22 01:12:13;;;;;;;6.57;3.50;;;23.60;52.50;;;;;;6111430;23;114174;-81
2023/07/22 01:14:41;;;;;;;7.30;3.72;;;23.60;52.10;;;;;;6110307;23;115494;-81
2023/07/22 01:17:09;;;;;;;6.72;3.60;;;23.70;52.10;;;;;;6108657;22;114586;-80
2023/07/22 01:19:36;;;;;;;5.88;3.85;;;23.70;52.10;;;;;;6109748;23;114228;-81
2023/07/22 01:22:07;;;;;;;5.55;3.38;;;23.70;52.30;;;;;;6109652;23;114142;-80
2023/07/22 01:24:34;;;;;;;7.18;3.35;;;23.70;52.10;;;;;;6108788;23;114909;-80
2023/07/22 01:27:03;;;;;;;5.30;3.67;;;23.70;52.20;;;;;;6084820;23;114742;-80
2023/07/22 01:29:30;;;;;;;5.90;3.58;;;23.70;52.30;;;;;;6110989;22;114065;-80
2023/07/22 01:31:57;;;;;;;5.28;3.80;;;23.70;52.10;;;;;;6109487;23;114303;-81
2023/07/22 01:34:24;;;;;;;6.72;3.70;;;23.60;52.50;;;;;;6083492;23;114800;-81
2023/07/22 01:36:52;;;;;;;6.68;3.75;;;23.60;52.30;;;;;;6108887;22;114619;-81
2023/07/22 01:39:20;;;;;;;5.50;3.13;;;23.60;52.30;;;;;;6109407;23;114171;-80
2023/07/22 01:41:47;;;;;;;5.78;3.40;;;23.60;52.30;;;;;;6085114;23;114321;-80
2023/07/22 01:44:15;;;;;;;6.47;3.60;;;23.50;52.30;;;;;;6084281;23;114976;-81
2023/07/22 01:46:43;;;;;;;5.80;4.32;;;23.50;52.40;;;;;;6109587;23;115180;-80
2023/07/22 01:49:12;;;;;;;6.97;3.75;;;23.50;52.50;;;;;;6134099;22;114238;-80
2023/07/22 01:51:42;;;;;;;6.22;3.47;;;23.50;52.20;;;;;;6085785;23;114540;-81
2023/07/22 01:54:10;;;;;;;5.50;3.28;;;23.50;52.30;;;;;;6109385;22;114925;-81
2023/07/22 01:56:37;;;;;;;5.50;3.65;;;23.50;52.20;;;;;;6083716;23;114523;-81
2023/07/22 01:59:05;;;;;;;5.97;3.65;;;23.50;52.50;;;;;;6084426;23;114070;-80
2023/07/22 02:01:32;;;;;;;5.47;3.40;;;23.40;52.30;;;;;;6109499;22;114197;-79
2023/07/22 02:04:00;;;;;;;6.40;3.10;;;23.30;52.50;;;;;;6108634;23;115371;-79
2023/07/22 02:06:28;;;;;;;5.32;3.78;;;23.00;52.90;;;;;;6133361;22;114761;-79
2023/07/22 02:08:56;;;;;;;6.10;3.50;;;22.80;53.30;;;;;;6085225;23;114418;-80
2023/07/22 02:11:24;;;;;;;5.78;3.80;;;22.80;53.60;;;;;;6109312;23;114306;-81
2023/07/22 02:13:51;;;;;;;6.10;3.58;;;22.70;53.60;;;;;;6133304;22;114818;-79
2023/07/22 02:16:18;;;;;;;5.75;3.22;;;22.60;53.60;;;;;;6110212;23;114491;-80
2023/07/22 02:18:47;;;;;;;6.57;4.38;;;22.50;53.80;;;;;;6109426;23;114116;-81
2023/07/22 02:21:14;;;;;;;5.47;3.72;;;22.50;54.10;;;;;;6109559;23;114383;-79
2023/07/22 02:23:41;;;;;;;5.57;3.95;;;22.50;54.10;;;;;;6109368;23;115364;-80
2023/07/22 02:26:08;;;;;;;5.47;3.90;;;22.60;54.10;;;;;;6108404;23;117436;-80
2023/07/22 02:28:36;;;;;;;5.88;3.90;;;22.70;53.80;;;;;;6110866;23;114359;-80
2023/07/22 02:31:06;;;;;;;6.28;4.32;;;22.80;53.50;;;;;;6134132;22;114772;-80
2023/07/22 02:33:35;;;;;;;5.45;3.97;;;22.90;53.30;;;;;;6108283;23;114953;-80
2023/07/22 02:36:02;;;;;;;6.28;3.83;;;23.00;53.10;;;;;;6108149;23;114854;-80
2023/07/22 02:38:29;;;;;;;5.75;4.00;;;23.10;52.90;;;;;;6109385;23;114359;-80
2023/07/22 02:41:05;;;;;;;5.32;3.75;;;23.20;52.70;;;;;;6109827;23;114058;-80
2023/07/22 02:43:32;;;;;;;5.10;3.60;;;23.30;52.50;;;;;;6108924;22;116113;-80
2023/07/22 02:46:02;;;;;;;5.88;3.53;;;23.30;52.30;;;;;;6108501;23;115009;-81
2023/07/22 02:48:29;;;;;;;6.93;4.40;;;23.30;52.20;;;;;;6108394;23;114185;-81
2023/07/22 02:51:23;;;;;;;5.75;3.78;;;23.30;52.30;;;;;;6110223;23;114093;-80
2023/07/22 02:53:50;;;;;;;7.32;4.07;;;23.50;51.80;;;;;;6106820;23;115257;-80
2023/07/22 02:56:17;;;;;;;5.95;3.92;;;23.30;52.20;;;;;;6107667;23;114721;-80
2023/07/22 02:58:44;;;;;;;7.72;4.60;;;23.30;52.30;;;;;;6110601;23;114199;-80
2023/07/22 03:01:12;;;;;;;4.70;3.40;;;23.30;52.70;;;;;;6134291;22;114009;-81
2023/07/22 03:03:39;;;;;;;5.10;3.90;;;23.10;52.40;;;;;;6133192;22;114893;-80
2023/07/22 03:06:08;;;;;;;5.05;3.80;;;23.10;52.80;;;;;;6084823;23;114457;-80
2023/07/22 03:08:36;;;;;;;4.82;3.47;;;23.20;52.60;;;;;;6084894;23;114506;-80
2023/07/22 03:11:03;;;;;;;5.05;3.60;;;23.20;52.40;;;;;;6109384;23;114320;-80
2023/07/22 03:13:30;;;;;;;5.72;3.58;;;23.30;52.60;;;;;;6107717;23;114821;-80
2023/07/22 03:15:58;;;;;;;6.40;3.47;;;23.30;52.40;;;;;;6132740;22;115053;-80
2023/07/22 03:18:25;;;;;;;7.20;4.07;;;23.30;52.30;;;;;;6110442;23;114272;-80
2023/07/22 03:20:53;;;;;;;8.45;4.70;;;23.40;52.10;;;;;;6109636;23;114199;-80
2023/07/22 03:23:20;;;;;;;5.20;3.88;;;23.40;52.40;;;;;;6108544;23;114946;-80
2023/07/22 03:25:48;;;;;;;6.50;3.38;;;23.30;52.20;;;;;;6084127;23;117539;-80
2023/07/22 03:28:15;;;;;;;5.80;3.55;;;23.40;52.00;;;;;;6110700;22;114163;-80
2023/07/22 03:30:42;;;;;;;6.32;3.92;;;23.40;51.90;;;;;;6109620;23;114091;-80
2023/07/22 03:33:10;;;;;;;7.03;4.05;;;23.40;52.10;;;;;;6109946;23;114925;-80
2023/07/22 03:35:37;;;;;;;6.43;4.47;;;23.40;51.90;;;;;;6133430;22;114565;-80
2023/07/22 03:38:06;;;;;;;6.35;3.75;;;23.40;51.80;;;;;;6109270;23;114100;-80
2023/07/22 03:40:33;;;;;;;5.82;3.20;;;23.50;52.00;;;;;;6134119;22;114128;-80
2023/07/22 03:43:00;;;;;;;6.85;3.95;;;23.50;51.80;;;;;;6108168;23;115003;-80
2023/07/22 03:45:28;;;;;;;5.00;3.47;;;23.60;51.90;;;;;;6133134;22;114634;-80
2023/07/22 03:47:58;;;;;;;4.75;3.25;;;23.60;51.80;;;;;;6110753;22;114254;-79
2023/07/22 03:50:26;;;;;;;8.60;4.80;;;23.60;51.90;;;;;;6108787;23;114452;-80
2023/07/22 03:52:53;;;;;;;5.88;3.53;;;23.60;52.40;;;;;;6108571;23;114899;-80
2023/07/22 03:55:20;;;;;;;5.00;3.38;;;23.50;51.80;;;;;;6132844;22;114807;-80
2023/07/22 03:57:47;;;;;;;6.20;3.42;;;23.50;51.70;;;;;;6133866;22;114448;-80
2023/07/22 04:00:16;;;;;;;5.07;3.10;;;23.60;51.80;;;;;;6109624;23;114301;-80
2023/07/22 04:02:43;;;;;;;5.93;4.30;;;23.60;51.60;;;;;;6108880;22;114803;-80
2023/07/22 04:05:11;;;;;;;5.22;3.70;;;23.70;51.60;;;;;;6108270;23;114448;-80
2023/07/22 04:07:38;;;;;;;4.60;3.42;;;23.70;51.70;;;;;;6110269;23;114436;-80
2023/07/22 04:10:06;;;;;;;5.20;3.50;;;23.70;51.60;;;;;;6109053;23;114195;-80
2023/07/22 04:12:33;;;;;;;5.90;3.92;;;23.70;51.50;;;;;;6108013;23;115410;-80
2023/07/22 04:15:01;;;;;;;6.10;4.00;;;23.70;51.50;;;;;;6083593;23;115020;-80
2023/07/22 04:17:31;;;;;;;5.57;3.60;;;23.70;51.50;;;;;;6108708;23;114115;-80
2023/07/22 04:19:58;;;;;;;4.95;2.97;;;23.70;51.70;;;;;;6085065;23;114111;-80
2023/07/22 04:22:25;;;;;;;6.88;3.47;;;23.70;51.50;;;;;;6109308;23;114728;-80
2023/07/22 04:24:53;;;;;;;5.25;3.60;;;23.70;51.60;;;;;;6109279;23;114677;-80
2023/07/22 04:27:20;;;;;;;7.00;4.88;;;23.70;51.60;;;;;;6109537;23;114043;-80
2023/07/22 04:29:47;;;;;;;8.55;4.10;;;23.60;52.50;;;;;;6110325;23;114163;-80
2023/07/22 04:32:14;;;;;;;5.30;3.40;;;23.50;52.50;;;;;;6109366;23;114782;-80
2023/07/22 04:34:41;;;;;;;8.70;5.25;;;23.40;52.30;;;;;;6109207;23;115898;-79
2023/07/22 04:37:08;;;;;;;6.45;3.55;;;23.40;52.70;;;;;;6109841;22;114100;-80
2023/07/22 04:39:36;;;;;;;7.45;4.65;;;23.30;52.20;;;;;;6108429;23;114167;-80
2023/07/22 04:42:04;;;;;;;5.10;2.97;;;23.40;52.60;;;;;;6107631;23;114938;-80
2023/07/22 04:44:31;;;;;;;7.22;4.35;;;23.30;52.20;;;;;;6109411;22;114489;-80
2023/07/22 04:46:58;;;;;;;6.05;4.60;;;23.30;52.80;;;;;;6108596;23;114355;-80
2023/07/22 04:49:25;;;;;;;7.28;4.47;;;23.30;52.90;;;;;;6108173;23;114155;-80
2023/07/22 04:51:52;;;;;;;5.78;4.93;;;23.30;53.10;;;;;;6107018;23;114717;-80
2023/07/22 04:54:19;;;;;;;6.18;4.03;;;23.20;53.40;;;;;;6131739;22;114544;-80
2023/07/22 04:56:47;;;;;;;6.43;4.35;;;23.20;52.90;;;;;;6109753;23;114134;-80
2023/07/22 04:59:15;;;;;;;7.47;5.13;;;23.20;52.80;;;;;;6108353;23;114309;-80
2023/07/22 05:01:43;;;;;;;7.53;5.53;;;23.10;52.90;;;;;;6107360;23;117143;-80
2023/07/22 05:04:10;;;;;;;9.05;4.57;;;23.00;52.80;;;;;;6108967;23;115828;-79
2023/07/22 05:06:37;;;;;;;5.50;3.45;;;22.90;52.90;;;;;;6109726;23;114004;-81
2023/07/22 05:09:04;;;;;;;6.38;3.42;;;22.80;53.30;;;;;;6110193;23;114049;-80
2023/07/22 05:11:32;;;;;;;9.77;4.80;;;22.50;53.70;;;;;;6108955;23;115325;-79
2023/07/22 05:13:59;;;;;;;8.77;4.10;;;22.40;54.00;;;;;;6107979;23;117603;-80
2023/07/22 05:16:26;;;;;;;7.05;3.72;;;22.50;54.00;;;;;;6110306;23;114346;-80
2023/07/22 05:18:54;;;;;;;8.10;4.80;;;22.40;54.10;;;;;;6134544;22;114216;-80
2023/07/22 05:21:21;;;;;;;8.10;4.18;;;22.40;54.40;;;;;;6107835;23;118822;-80
2023/07/22 05:23:48;;;;;;;6.00;4.80;;;22.50;54.30;;;;;;6110100;23;114596;-80
2023/07/22 05:26:15;;;;;;;7.63;5.43;;;22.50;54.20;;;;;;6109640;23;114362;-80
2023/07/22 05:28:42;;;;;;;10.85;6.13;;;22.40;54.40;;;;;;6109885;23;114710;-79
2023/07/22 05:31:09;;;;;;;6.75;3.65;;;22.40;54.00;;;;;;6110257;23;114201;-80
2023/07/22 05:33:37;;;;;;;7.13;3.63;;;22.30;54.00;;;;;;6110466;23;115283;-80
2023/07/22 05:36:04;;;;;;;7.43;5.25;;;22.30;53.90;;;;;;6111036;23;114314;-80
2023/07/22 05:38:31;;;;;;;4.88;3.78;;;22.30;53.60;;;;;;6109371;23;114227;-80
2023/07/22 05:40:58;;;;;;;6.93;3.88;;;22.30;53.90;;;;;;6083466;23;114967;-80
2023/07/22 05:43:25;;;;;;;8.85;3.70;;;22.30;53.70;;;;;;6108374;23;114559;-80
2023/07/22 05:45:52;;;;;;;6.97;4.00;;;22.30;54.00;;;;;;6109500;23;114126;-80
2023/07/22 05:48:21;;;;;;;7.18;3.22;;;22.20;53.80;;;;;;6110609;23;114279;-81
2023/07/22 05:50:48;;;;;;;8.35;3.72;;;22.10;54.30;;;;;;6133621;22;114941;-80
2023/07/22 05:53:16;;;;;;;8.70;4.00;;;22.00;54.30;;;;;;6110207;23;114543;-80
2023/07/22 05:55:43;;;;;;;5.03;2.90;;;22.20;54.20;;;;;;6108967;23;114153;-80
2023/07/22 05:58:17;;;;;;;6.75;4.50;;;22.30;54.00;;;;;;6134695;22;114237;-80
2023/07/22 06:00:46;;;;;;;10.43;5.10;;;22.40;53.60;;;;;;6109836;22;115431;-81
2023/07/22 06:03:13;;;;;;;11.02;3.58;;;22.50;53.20;;;;;;6110006;22;114676;-81
2023/07/22 06:05:40;;;;;;;8.95;3.95;;;22.40;53.40;;;;;;6108448;23;114111;-81
2023/07/22 06:08:07;;;;;;;6.30;3.20;;;22.40;53.50;;;;;;6110738;22;114064;-79
2023/07/22 06:10:37;;;;;;;8.95;4.30;;;22.40;53.40;;;;;;6109558;23;115443;-80
2023/07/22 06:13:05;;;;;;;7.40;4.25;;;22.50;53.40;;;;;;6109809;23;115073;-80
2023/07/22 06:15:32;;;;;;;11.70;4.28;;;22.60;53.30;;;;;;6109224;23;114236;-81
2023/07/22 06:18:00;;;;;;;9.02;2.90;;;22.70;53.00;;;;;;6110824;23;114382;-80
2023/07/22 06:20:27;;;;;;;5.68;3.42;;;22.80;52.60;;;;;;6133192;22;115195;-81
2023/07/22 06:22:56;;;;;;;5.90;3.30;;;23.00;52.20;;;;;;6108747;23;114591;-79
2023/07/22 06:25:23;;;;;;;8.57;3.63;;;23.10;51.90;;;;;;6108072;23;114194;-80
2023/07/22 06:27:53;;;;;;;6.95;4.45;;;23.10;51.60;;;;;;6109527;23;114404;-82
2023/07/22 06:30:21;;;;;;;6.35;3.28;;;23.20;52.30;;;;;;6109673;23;114987;-81
2023/07/22 06:32:48;;;;;;;8.07;3.90;;;23.10;51.90;;;;;;6133431;22;114474;-80
2023/07/22 06:35:15;;;;;;;7.55;3.72;;;23.10;51.50;;;;;;6109180;23;114286;-79
2023/07/22 06:37:43;;;;;;;8.20;4.50;;;23.10;51.20;;;;;;6110549;23;114263;-80
2023/07/22 06:40:10;;;;;;;7.10;3.65;;;23.30;50.40;;;;;;6109731;23;115538;-82
2023/07/22 06:42:37;;;;;;;8.27;3.72;;;23.30;50.10;;;;;;6133403;22;115631;-80
2023/07/22 06:45:05;;;;;;;5.20;3.15;;;23.40;50.30;;;;;;6108934;23;114304;-80
2023/07/22 06:47:32;;;;;;;6.65;3.83;;;23.50;50.50;;;;;;6109444;23;114129;-79
2023/07/22 06:50:00;;;;;;;7.07;3.08;;;23.50;49.70;;;;;;6082818;23;118374;-79
2023/07/22 06:52:27;;;;;;;9.18;3.50;;;23.50;49.80;;;;;;6108121;23;114594;-80
2023/07/22 06:54:54;;;;;;;9.63;4.22;;;23.40;50.10;;;;;;6133198;22;114419;-81
2023/07/22 06:57:21;;;;;;;7.10;3.92;;;23.40;49.90;;;;;;6108676;22;114244;-80
2023/07/22 06:59:50;;;;;;;5.47;2.95;;;23.40;50.20;;;;;;6109639;23;114841;-81
2023/07/22 07:02:17;;;;;;;7.25;3.63;;;23.40;50.40;;;;;;6109625;23;115622;-81
2023/07/22 07:04:45;;;;;;;5.65;2.90;;;23.40;50.00;;;;;;6133970;22;114115;-80
2023/07/22 07:07:12;;;;;;;7.70;4.85;;;23.30;50.40;;;;;;6110491;22;114213;-80
2023/07/22 07:09:40;;;;;;;5.45;3.00;;;23.50;49.60;;;;;;6083687;23;114828;-80
2023/07/22 07:12:07;;;;;;;5.78;3.45;;;23.40;49.90;;;;;;6109935;22;114562;-80
2023/07/22 07:14:34;;;;;;;8.48;4.10;;;23.50;49.60;;;;;;6108879;23;114095;-80
2023/07/22 07:17:02;;;;;;;7.15;3.38;;;23.60;49.20;;;;;;6110266;23;114367;-81
2023/07/22 07:19:29;;;;;;;5.10;4.03;;;23.60;49.30;;;;;;6107392;22;115391;-80
2023/07/22 07:21:56;;;;;;;7.72;3.45;;;23.60;49.40;;;;;;6108169;23;114693;-80
2023/07/22 07:24:23;;;;;;;9.85;4.13;;;23.40;49.90;;;;;;6108769;23;114412;-80
2023/07/22 07:26:51;;;;;;;8.95;5.13;;;23.30;50.30;;;;;;6108827;23;114233;-81
2023/07/22 07:29:18;;;;;;;13.95;8.07;;;23.20;50.40;;;;;;6106623;23;119015;-80
2023/07/22 07:32:05;;;;;;;6.15;4.75;;;22.90;51.40;;;;;;6108284;22;115657;-80
2023/07/22 07:34:32;;;;;;;6.05;3.97;;;22.80;51.90;;;;;;6110206;23;114130;-82
2023/07/22 07:36:59;;;;;;;7.30;4.38;;;22.80;51.90;;;;;;6110392;23;114338;-80
2023/07/22 07:39:26;;;;;;;10.05;4.30;;;22.90;51.70;;;;;;6109387;23;114825;-81
2023/07/22 07:41:53;;;;;;;6.88;4.28;;;23.10;51.60;;;;;;6109224;23;115764;-81
2023/07/22 07:44:20;;;;;;;5.32;3.75;;;23.30;50.70;;;;;;6109537;23;114218;-79
2023/07/22 07:46:48;;;;;;;9.38;4.28;;;23.50;50.60;;;;;;6110206;23;114288;-81
2023/07/22 07:49:15;;;;;;;8.10;4.07;;;23.60;49.80;;;;;;6109006;23;115312;-79
2023/07/22 07:51:42;;;;;;;11.93;4.20;;;23.60;49.80;;;;;;6107707;23;114629;-81
2023/07/22 07:54:09;;;;;;;6.55;3.53;;;23.70;49.60;;;;;;6110341;22;114095;-80
2023/07/22 07:56:37;;;;;;;7.40;4.30;;;23.70;49.60;;;;;;6109921;23;114235;-80
2023/07/22 07:59:05;;;;;;;4.97;3.60;;;23.80;49.80;;;;;;6107562;23;114868;-80
2023/07/22 08:01:32;;;;;;;8.40;4.28;;;23.80;49.50;;;;;;6109684;23;114520;-80
2023/07/22 08:03:59;;;;;;;6.57;4.13;;;23.90;49.20;;;;;;6084100;23;114291;-81
2023/07/22 08:06:27;;;;;;;7.80;5.25;;;24.00;49.10;;;;;;6108580;23;114288;-80
2023/07/22 08:08:54;;;;;;;7.00;4.30;;;24.00;48.50;;;;;;6107052;23;115192;-80
2023/07/22 08:11:21;;;;;;;6.07;4.25;;;24.00;49.30;;;;;;6132607;22;114479;-80
2023/07/22 08:13:49;;;;;;;11.23;4.30;;;24.10;49.00;;;;;;6110064;23;114182;-80
2023/07/22 08:16:16;;;;;;;6.97;4.28;;;24.20;48.70;;;;;;6133568;22;114154;-80
2023/07/22 08:18:46;;;;;;;7.50;3.97;;;24.20;48.10;;;;;;6082835;23;114418;-81
2023/07/22 08:21:14;;;;;;;6.97;4.20;;;24.20;48.60;;;;;;6107592;23;114569;-81
2023/07/22 08:23:45;;;;;;;7.18;3.97;;;24.30;48.30;;;;;;6109883;23;114144;-80
2023/07/22 08:26:12;;;;;;;6.63;4.60;;;24.40;47.90;;;;;;6110368;23;114106;-80
2023/07/22 08:28:40;;;;;;;7.22;4.57;;;24.50;48.50;;;;;;6107583;23;115744;-80
2023/07/22 08:31:07;;;;;;;5.70;4.03;;;24.50;47.00;;;;;;6132272;22;114556;-81
2023/07/22 08:33:35;;;;;;;7.22;5.00;;;24.40;47.40;;;;;;6109133;22;114360;-80
2023/07/22 08:36:08;;;;;;;8.40;4.32;;;24.30;47.30;;;;;;6084911;23;114292;-80
2023/07/22 08:38:36;;;;;;;7.97;4.65;;;24.30;47.80;;;;;;6108691;23;114852;-80
2023/07/22 08:41:03;;;;;;;9.38;4.53;;;24.30;47.90;;;;;;6108845;23;114539;-81
2023/07/22 08:43:30;;;;;;;6.40;4.75;;;24.30;47.60;;;;;;6108122;23;114293;-81
2023/07/22 08:46:00;;;;;;;8.35;5.00;;;24.30;47.60;;;;;;6108135;23;114106;-80
2023/07/22 08:48:29;;;;;;;7.50;5.20;;;24.30;47.80;;;;;;6107790;23;114904;-80
2023/07/22 08:51:09;;;;;;;8.32;5.05;;;24.30;47.40;;;;;;6109055;23;114599;-82
2023/07/22 08:53:37;;;;;;;6.05;4.20;;;24.30;48.10;;;;;;6109563;23;114261;-80
2023/07/22 08:56:04;;;;;;;5.70;3.53;;;24.30;47.70;;;;;;6109213;23;114484;-79
2023/07/22 08:58:31;;;;;;;5.78;3.88;;;24.30;47.60;;;;;;6107853;23;114856;-80
2023/07/22 09:00:58;;;;;;;6.45;4.15;;;24.30;47.60;;;;;;6083969;23;114606;-79
2023/07/22 09:03:25;;;;;;;8.70;5.35;;;24.40;47.30;;;;;;6109452;23;114153;-80
2023/07/22 09:05:53;;;;;;;6.30;4.60;;;24.60;47.00;;;;;;6085061;23;114198;-80
2023/07/22 09:08:20;;;;;;;5.50;4.03;;;24.70;46.70;;;;;;6108676;23;114879;-80
2023/07/22 09:10:48;;;;;;;5.00;4.03;;;24.80;46.90;;;;;;6109982;23;114688;-80
2023/07/22 09:13:15;;;;;;;6.68;3.90;;;24.90;46.10;;;;;;6084991;23;114545;-80
2023/07/22 09:15:42;;;;;;;6.43;4.40;;;24.90;45.50;;;;;;6109852;23;114218;-80
2023/07/22 09:18:09;;;;;;;7.00;4.60;;;24.80;45.20;;;;;;6109751;23;114923;-80
2023/07/22 09:20:37;;;;;;;6.05;4.20;;;24.70;45.50;;;;;;6108587;22;114065;-81
2023/07/22 09:23:04;;;;;;;6.35;4.60;;;24.60;45.80;;;;;;6110381;23;114250;-81
2023/07/22 09:25:40;;;;;;;4.50;3.90;;;24.50;46.00;;;;;;6086589;23;114463;-81
2023/07/22 09:28:08;;;;;;;6.35;4.10;;;24.50;46.50;;;;;;6133442;22;115787;-81
2023/07/22 09:30:36;;;;;;;4.85;4.35;;;24.60;45.60;;;;;;6108552;22;114480;-80
2023/07/22 09:33:04;;;;;;;6.95;4.55;;;24.60;45.70;;;;;;6110420;23;114285;-80
2023/07/22 09:35:44;;;;;;;5.38;4.25;;;24.70;45.30;;;;;;6109382;23;114423;-80
2023/07/22 09:38:12;;;;;;;5.43;4.30;;;24.90;45.10;;;;;;6108449;22;114825;-78
2023/07/22 09:40:42;;;;;;;4.28;3.60;;;24.90;44.90;;;;;;6110182;22;115043;-80
2023/07/22 09:43:10;;;;;;;10.82;9.07;;;25.00;45.20;;;;;;6109469;22;114247;-81
2023/07/22 09:45:40;;;;;;;4.70;3.95;;;25.10;44.60;;;;;;6084798;23;114111;-79
2023/07/22 09:48:07;;;;;;;5.18;3.80;;;25.00;44.70;;;;;;6108469;22;115349;-81
2023/07/22 09:50:34;;;;;;;5.13;2.83;;;25.00;43.50;;;;;;6108411;23;114560;-80
2023/07/22 09:53:03;;;;;;;5.05;3.13;;;25.20;42.50;;;;;;6109247;23;114300;-80
2023/07/22 09:55:31;;;;;;;3.50;2.78;;;25.30;42.30;;;;;;6108973;23;114228;-80
2023/07/22 09:58:09;;;;;;;4.82;3.28;;;25.40;42.00;;;;;;6108076;23;114954;-80
2023/07/22 10:00:36;;;;;;;4.53;3.40;;;25.40;42.80;;;;;;6109530;22;114445;-81
2023/07/22 10:03:05;;;;;;;5.30;3.75;;;25.50;43.10;;;;;;6110747;23;114048;-80
2023/07/22 10:05:34;;;;;;;6.47;3.30;;;25.70;42.90;;;;;;6109812;23;114061;-81
2023/07/22 10:08:02;;;;;;;4.60;3.35;;;25.70;41.40;;;;;;6108803;22;114898;-80
2023/07/22 10:10:36;;;;;;;5.40;3.00;;;25.80;41.10;;;;;;6108669;23;114603;-80
2023/07/22 10:13:03;;;;;;;4.35;2.90;;;25.80;41.00;;;;;;6084168;23;114122;-80
2023/07/22 10:15:33;;;;;;;4.45;3.20;;;25.80;41.40;;;;;;6110428;23;114158;-80
2023/07/22 10:18:01;;;;;;;4.28;3.10;;;25.80;41.40;;;;;;6108336;23;115269;-80
2023/07/22 10:20:28;;;;;;;4.20;3.25;;;25.90;41.20;;;;;;6108272;23;117048;-80
2023/07/22 10:22:55;;;;;;;5.32;2.90;;;25.90;41.30;;;;;;6084865;23;114223;-80
2023/07/22 10:25:22;;;;;;;4.43;2.85;;;25.90;40.50;;;;;;6109147;23;114118;-80
2023/07/22 10:27:51;;;;;;;5.15;2.70;;;25.90;40.30;;;;;;6109601;23;116908;-80
2023/07/22 10:30:18;;;;;;;4.97;2.75;;;25.90;39.50;;;;;;6110195;23;114578;-81
2023/07/22 10:32:47;;;;;;;3.50;2.58;;;26.00;40.10;;;;;;6084716;23;114265;-81
2023/07/22 10:35:30;;;;;;;3.88;2.95;;;26.00;39.80;;;;;;6109084;23;114210;-81
2023/07/22 10:38:14;;;;;;;3.95;3.10;;;26.10;40.60;;;;;;6132401;22;115357;-80
2023/07/22 10:40:50;;;;;;;;;;;26.10;40.20;;;;;;6110115;22;114883;-81
2023/07/22 10:43:23;;;;;;;4.15;3.40;;;26.00;41.30;;;;;;6134267;22;114233;-80
2023/07/22 10:45:54;;;;;;;5.53;3.45;;;26.00;39.80;;;;;;6109292;23;114142;-79
2023/07/22 10:48:34;;;;;;;3.95;3.15;;;26.00;39.40;;;;;;6107611;23;115191;-80
2023/07/22 10:51:09;;;;;;;5.30;3.97;;;26.00;39.70;;;;;;6109701;23;114772;-80
2023/07/22 10:53:50;;;;;;;5.40;3.60;;;26.00;39.60;;;;;;6110390;23;114185;-80
2023/07/22 10:56:21;;;;;;;4.88;3.53;;;26.10;38.60;;;;;;6110681;22;114204;-81
2023/07/22 10:58:52;;;;;;;5.00;3.63;;;26.00;39.00;;;;;;6133230;22;114973;-81
2023/07/22 11:01:28;;;;;;;5.45;3.97;;;25.90;39.20;;;;;;6109627;23;114526;-79
2023/07/22 11:04:32;;;;;;;4.72;3.65;;;26.00;39.20;;;;;;6133425;22;114338;-81
2023/07/22 11:07:29;;;;;;;5.40;3.72;;;26.00;39.10;;;;;;6109625;23;114381;-81
2023/07/22 11:09:56;;;;;;;5.65;3.63;;;25.90;39.40;;;;;;6083815;23;114890;-79
2023/07/22 11:12:24;;;;;;;5.80;4.40;;;25.90;39.50;;;;;;6107547;23;117993;-79
2023/07/22 11:14:53;;;;;;;4.35;3.70;;;25.80;38.80;;;;;;6110244;23;114161;-79
2023/07/22 11:17:30;;;;;;;4.47;4.07;;;25.80;39.80;;;;;;6109201;23;114383;-80
2023/07/22 11:19:58;;;;;;;5.32;3.78;;;26.00;38.40;;;;;;6133221;22;116268;-80
2023/07/22 11:22:29;;;;;;;4.68;3.80;;;25.90;37.40;;;;;;6108702;23;115351;-80
2023/07/22 11:24:58;;;;;;;5.80;3.92;;;25.90;38.50;;;;;;6109092;23;114179;-80
2023/07/22 11:27:27;;;;;;;4.93;3.83;;;25.90;39.40;;;;;;6110544;22;114287;-80
2023/07/22 11:29:58;;;;;;;7.07;4.45;;;25.90;38.50;;;;;;6107444;23;116121;-80
2023/07/22 11:32:25;;;;;;;7.13;4.68;;;25.90;38.10;;;;;;6107785;23;114656;-80
2023/07/22 11:34:55;;;;;;;6.75;4.55;;;25.90;37.60;;;;;;6109001;23;114333;-80
2023/07/22 11:37:22;;;;;;;5.70;4.68;;;26.00;38.50;;;;;;6110410;23;114094;-80
2023/07/22 11:39:50;;;;;;;6.93;4.65;;;26.00;37.70;;;;;;6109731;23;114837;-81
2023/07/22 11:42:17;;;;;;;6.80;4.32;;;25.90;38.50;;;;;;6108418;23;114572;-80
2023/07/22 11:44:44;;;;;;;5.95;4.50;;;25.80;37.50;;;;;;6085293;23;114247;-80
2023/07/22 11:47:11;;;;;;;5.10;4.60;;;25.80;37.70;;;;;;6110588;23;114342;-81
2023/07/22 11:49:40;;;;;;;5.55;4.93;;;25.70;37.50;;;;;;6110514;23;115096;-80
2023/07/22 11:52:09;;;;;;;5.95;5.30;;;25.80;38.20;;;;;;6087793;23;117997;-79
2023/07/22 11:54:39;;;;;;;5.55;4.93;;;25.80;37.90;;;;;;6110787;23;114287;-79
2023/07/22 11:57:16;;;;;;;6.88;4.78;;;25.90;38.80;;;;;;6084535;23;114168;-79
2023/07/22 11:59:45;;;;;;;5.65;5.05;;;25.90;37.90;;;;;;6108631;22;118683;-80
2023/07/22 12:02:19;;;;;;;4.65;4.05;;;25.90;37.50;;;;;;6108398;23;115680;-80
2023/07/22 12:04:54;;;;;;;5.68;4.47;;;25.90;37.20;;;;;;6084616;23;114514;-80
2023/07/22 12:07:28;;;;;;;5.25;4.40;;;25.90;38.30;;;;;;6134902;22;114016;-81
2023/07/22 12:09:56;;;;;;;4.72;4.20;;;25.90;37.40;;;;;;6109125;23;115952;-81
2023/07/22 12:12:41;;;;;;;5.22;4.28;;;25.90;37.40;;;;;;6133410;22;114551;-80
2023/07/22 12:15:27;;;;;;;6.40;4.40;;;26.00;38.50;;;;;;6109171;23;114107;-79
2023/07/22 12:17:59;;;;;;;6.75;4.30;;;26.00;37.50;;;;;;6110587;23;114337;-80
2023/07/22 12:20:27;;;;;;;5.22;4.18;;;26.00;37.80;;;;;;6108576;22;114800;-79
2023/07/22 12:22:55;;;;;;;5.20;4.40;;;26.00;37.70;;;;;;6109792;23;114565;-80
2023/07/22 12:25:22;;;;;;;5.22;3.65;;;26.00;37.40;;;;;;6085466;23;114155;-80
2023/07/22 12:27:49;;;;;;;4.50;3.42;;;26.00;37.00;;;;;;6085834;23;114099;-80
2023/07/22 12:30:17;;;;;;;6.68;3.40;;;26.10;36.90;;;;;;6110298;23;117001;-80
2023/07/22 12:32:46;;;;;;;5.00;3.03;;;26.10;36.70;;;;;;6108192;23;116387;-81
2023/07/22 12:35:14;;;;;;;4.55;3.53;;;26.00;36.70;;;;;;6111523;22;114260;-81
2023/07/22 12:37:41;;;;;;;5.70;3.20;;;25.90;36.70;;;;;;6110019;23;114256;-80
2023/07/22 12:40:09;;;;;;;4.15;3.33;;;25.90;35.70;;;;;;6108986;23;114857;-80
2023/07/22 12:42:36;;;;;;;5.57;3.00;;;25.80;37.20;;;;;;6110636;23;114651;-80